Time;durP1;ratioP1;P1;durP2;ratioP2;P2;SDS_P1;SDS_P2;PMS_P1;PMS_P2;Temp;Humidity;BMP_temperature;BMP_pressure;BME280_temperature;BME280_humidity;BME280_pressure;Samples;Min_cycle;Max_cycle;Signal;HPM_P1;HPM_P2
2023/07/04 00:01:01;;;;;;;5.40;2.80;;;;;;;19.92;68.53;99367.06;4960918;28;20635;-76
2023/07/04 00:03:28;;;;;;;5.50;3.10;;;;;;;19.91;68.75;99361.94;4961423;28;20488;-76
2023/07/04 00:05:55;;;;;;;4.10;2.80;;;;;;;19.89;68.79;99362.06;4949694;28;20548;-76
2023/07/04 00:08:23;;;;;;;7.47;4.83;;;;;;;19.89;68.93;99370.06;4956906;28;20541;-76
2023/07/04 00:10:50;;;;;;;5.50;3.00;;;;;;;19.88;68.80;99358.59;4957294;28;21058;-76
2023/07/04 00:13:17;;;;;;;5.23;3.13;;;;;;;19.85;68.92;99355.41;4957562;28;20473;-76
2023/07/04 00:15:50;;;;;;;7.50;3.00;;;;;;;19.87;69.04;99364.91;4955677;28;20479;-76
2023/07/04 00:18:20;;;;;;;4.30;2.80;;;;;;;19.88;68.77;99363.09;4958297;28;20498;-76
2023/07/04 00:20:58;;;;;;;5.60;4.10;;;;;;;19.88;68.65;99357.75;4956388;28;20502;-76
2023/07/04 00:23:26;;;;;;;3.93;2.53;;;;;;;19.88;68.58;99369.25;4955730;28;21122;-76
2023/07/04 00:25:52;;;;;;;6.23;3.40;;;;;;;19.88;68.69;99358.59;4954357;28;20493;-76
2023/07/04 00:28:21;;;;;;;4.30;2.90;;;;;;;19.88;68.42;99361.25;4957449;28;21141;-76
2023/07/04 00:30:47;;;;;;;4.70;2.60;;;;;;;19.80;68.49;99361.22;4935540;28;21661;-76
2023/07/04 00:33:13;;;;;;;5.60;3.90;;;;;;;19.67;68.79;99363.53;4937195;28;20472;-76
2023/07/04 00:35:39;;;;;;;3.63;2.33;;;;;;;19.52;69.33;99357.94;4952549;28;20480;-75
2023/07/04 00:38:05;;;;;;;3.00;2.63;;;;;;;19.49;69.44;99368.09;4957250;28;20965;-76
2023/07/04 00:40:31;;;;;;;5.47;3.30;;;;;;;19.50;69.71;99373.25;4953501;28;20488;-76
2023/07/04 00:43:02;;;;;;;11.10;3.67;;;;;;;19.53;69.27;99369.44;4958850;28;20227;-76
2023/07/04 00:45:31;;;;;;;3.27;2.73;;;;;;;19.57;69.34;99374.28;4958914;28;20505;-76
2023/07/04 00:48:03;;;;;;;6.90;3.40;;;;;;;19.64;69.32;99377.97;4954719;28;20475;-76
2023/07/04 00:50:33;;;;;;;7.73;2.70;;;;;;;19.68;69.08;99370.50;4937814;28;20908;-76
2023/07/04 00:53:02;;;;;;;3.13;2.80;;;;;;;19.64;69.26;99375.31;4956043;28;20475;-76
2023/07/04 00:55:30;;;;;;;6.40;2.50;;;;;;;19.59;69.48;99382.94;4956831;28;20471;-76
2023/07/04 00:57:55;;;;;;;3.00;1.93;;;;;;;19.54;69.69;99377.25;4952710;28;20568;-76
2023/07/04 01:00:25;;;;;;;3.70;2.63;;;;;;;19.52;69.70;99379.25;4939934;28;21082;-76
2023/07/04 01:02:58;;;;;;;4.70;2.63;;;;;;;19.50;69.69;99391.09;4954744;28;20458;-76
2023/07/04 01:05:40;;;;;;;7.50;3.20;;;;;;;19.48;70.00;99390.41;4955605;28;20497;-75
2023/07/04 01:08:12;;;;;;;2.70;2.10;;;;;;;19.48;70.13;99377.09;4943752;28;20727;-76
2023/07/04 01:10:42;;;;;;;4.03;2.30;;;;;;;19.53;69.88;99377.44;4939063;28;20477;-76
2023/07/04 01:13:27;;;;;;;7.50;2.53;;;;;;;19.55;69.98;99383.41;4938879;28;20477;-76
2023/07/04 01:15:52;;;;;;;2.37;2.07;;;;;;;19.56;69.85;99382.44;4952830;28;20472;-75
2023/07/04 01:18:19;;;;;;;2.43;1.93;;;;;;;19.57;69.84;99382.25;4954120;28;20998;-76
2023/07/04 01:20:47;;;;;;;3.73;2.70;;;;;;;19.58;69.79;99388.44;4927479;28;20476;-76
2023/07/04 01:23:23;;;;;;;4.50;2.17;;;;;;;19.57;69.73;99387.59;4939328;28;20710;-76
2023/07/04 01:25:59;;;;;;;4.20;3.57;;;;;;;19.62;69.77;99381.78;4952342;28;20482;-76
2023/07/04 01:28:25;;;;;;;3.10;2.60;;;;;;;19.64;69.75;99388.63;4955908;28;20510;-78
2023/07/04 01:30:51;;;;;;;4.00;2.40;;;;;;;19.68;69.45;99381.16;4929398;28;20498;-78
2023/07/04 01:33:18;;;;;;;6.33;2.77;;;;;;;19.70;69.21;99392.50;4939076;28;20794;-78
2023/07/04 01:35:45;;;;;;;4.07;3.60;;;;;;;19.64;69.36;99387.78;4954764;28;20481;-77
2023/07/04 01:38:11;;;;;;;8.17;3.73;;;;;;;19.55;69.58;99394.06;4938113;28;20586;-78
2023/07/04 01:40:36;;;;;;;7.90;2.97;;;;;;;19.46;69.92;99395.88;4957107;28;20756;-77
2023/07/04 01:43:03;;;;;;;5.13;3.30;;;;;;;19.43;70.22;99397.03;4940809;28;20483;-77
2023/07/04 01:45:28;;;;;;;3.90;3.50;;;;;;;19.42;70.08;99402.53;4921557;28;20223;-78
2023/07/04 01:47:54;;;;;;;4.20;2.30;;;;;;;19.39;70.27;99402.84;4958406;28;20508;-77
2023/07/04 01:50:20;;;;;;;3.93;2.77;;;;;;;19.30;70.57;99399.28;4954896;28;20317;-78
2023/07/04 01:52:46;;;;;;;4.53;3.13;;;;;;;19.25;71.11;99401.59;4957550;28;20225;-77
2023/07/04 01:55:13;;;;;;;7.80;2.87;;;;;;;19.22;71.35;99391.25;4957369;28;20499;-76
2023/07/04 01:57:39;;;;;;;2.83;2.40;;;;;;;19.16;71.61;99387.41;4953606;28;20486;-77
2023/07/04 02:00:08;;;;;;;6.30;3.07;;;;;;;19.16;71.93;99378.59;4938102;28;20467;-76
2023/07/04 02:02:53;;;;;;;4.27;3.07;;;;;;;19.17;72.01;99385.56;4954798;28;20514;-76
2023/07/04 02:05:19;;;;;;;5.10;2.73;;;;;;;19.20;72.36;99391.44;4950606;28;20614;-77
2023/07/04 02:07:47;;;;;;;7.13;2.90;;;;;;;19.25;72.47;99393.59;4947548;28;20407;-77
2023/07/04 02:10:12;;;;;;;4.50;2.90;;;;;;;19.32;72.06;99396.47;4955636;28;20510;-76
2023/07/04 02:12:37;;;;;;;3.50;2.33;;;;;;;19.39;72.08;99389.53;4955347;28;20804;-77
2023/07/04 02:15:03;;;;;;;4.23;3.00;;;;;;;19.44;72.12;99388.06;4936532;28;20219;-77
2023/07/04 02:17:29;;;;;;;4.03;2.93;;;;;;;19.53;71.88;99385.44;4955640;28;21091;-77
2023/07/04 02:19:54;;;;;;;3.33;2.63;;;;;;;19.59;71.97;99385.59;4945762;28;20543;-77
2023/07/04 02:22:20;;;;;;;3.60;2.30;;;;;;;19.65;71.69;99392.94;4929761;28;20226;-77
2023/07/04 02:24:46;;;;;;;5.33;2.90;;;;;;;19.70;71.85;99383.69;4946686;28;20792;-77
2023/07/04 02:27:11;;;;;;;4.33;3.30;;;;;;;19.74;71.77;99388.53;4947953;28;20487;-77
2023/07/04 02:29:37;;;;;;;3.07;2.57;;;;;;;19.77;71.63;99382.88;4950682;28;20853;-77
2023/07/04 02:32:02;;;;;;;5.10;2.30;;;;;;;19.78;71.59;99391.69;4957003;28;20218;-77
2023/07/04 02:34:28;;;;;;;6.00;2.60;;;;;;;19.76;71.58;99393.69;4936164;28;20721;-77
2023/07/04 02:36:53;;;;;;;2.80;2.50;;;;;;;19.75;71.81;99395.53;4933229;28;20259;-77
2023/07/04 02:39:19;;;;;;;3.37;2.70;;;;;;;19.75;71.87;99389.38;4937624;28;20333;-77
2023/07/04 02:41:44;;;;;;;4.30;2.80;;;;;;;19.74;71.71;99393.00;4954709;28;20905;-77
2023/07/04 02:44:09;;;;;;;3.37;2.90;;;;;;;19.76;71.82;99386.53;4957930;28;20219;-77
2023/07/04 02:46:35;;;;;;;1.93;1.83;;;;;;;19.77;71.90;99388.22;4933290;28;20253;-77
2023/07/04 02:49:05;;;;;;;3.87;1.70;;;;;;;19.77;71.88;99393.53;4937512;28;20222;-78
2023/07/04 02:51:32;;;;;;;1.73;1.63;;;;;;;19.77;71.73;99390.03;4932371;28;20568;-77
2023/07/04 02:53:58;;;;;;;3.30;2.00;;;;;;;19.76;72.02;99385.69;4923600;28;20682;-78
2023/07/04 02:56:24;;;;;;;3.20;2.10;;;;;;;19.77;71.73;99398.03;4946849;28;20478;-77
2023/07/04 02:58:49;;;;;;;4.00;2.23;;;;;;;19.77;71.60;99396.19;4927865;28;20229;-77
2023/07/04 03:01:15;;;;;;;2.63;1.90;;;;;;;19.81;71.90;99396.69;4958448;28;20219;-78
2023/07/04 03:03:42;;;;;;;2.43;2.07;;;;;;;19.82;71.81;99393.88;4931955;28;20723;-78
2023/07/04 03:06:08;;;;;;;3.17;2.00;;;;;;;19.86;72.41;99392.56;4947913;28;20501;-77
2023/07/04 03:08:34;;;;;;;3.20;1.80;;;;;;;19.87;72.24;99390.72;4934734;28;20944;-78
2023/07/04 03:11:00;;;;;;;4.30;3.33;;;;;;;19.86;72.18;99395.22;4936568;28;20481;-77
2023/07/04 03:13:28;;;;;;;2.73;1.90;;;;;;;19.85;72.19;99395.41;4933817;28;20215;-78
2023/07/04 03:15:53;;;;;;;2.90;2.00;;;;;;;19.83;72.05;99392.88;4953744;28;21098;-78
2023/07/04 03:18:20;;;;;;;5.57;2.20;;;;;;;19.81;72.04;99399.38;4937255;28;20223;-78
2023/07/04 03:20:46;;;;;;;6.00;2.10;;;;;;;19.78;72.05;99408.53;4939496;28;20482;-77
2023/07/04 03:23:11;;;;;;;4.43;2.57;;;;;;;19.75;72.17;99403.53;4953539;28;20471;-77
2023/07/04 03:25:38;;;;;;;3.40;2.20;;;;;;;19.74;72.24;99401.00;4934292;28;20530;-78
2023/07/04 03:28:03;;;;;;;3.87;2.03;;;;;;;19.70;72.25;99403.16;4945958;28;21447;-78
2023/07/04 03:30:29;;;;;;;4.80;2.23;;;;;;;19.67;71.97;99404.31;4931233;28;20216;-78
2023/07/04 03:33:01;;;;;;;3.40;2.37;;;;;;;19.67;72.33;99406.16;4935397;28;20480;-78
2023/07/04 03:35:27;;;;;;;2.13;1.90;;;;;;;19.66;72.31;99412.50;4950228;28;20672;-77
2023/07/04 03:37:52;;;;;;;4.73;2.20;;;;;;;19.65;72.42;99406.28;4931433;28;20255;-77
2023/07/04 03:40:18;;;;;;;2.73;2.40;;;;;;;19.61;72.50;99404.94;4945042;28;20246;-78
2023/07/04 03:42:43;;;;;;;4.57;1.93;;;;;;;19.55;72.46;99404.72;4940529;28;20259;-77
2023/07/04 03:45:10;;;;;;;2.70;2.00;;;;;;;19.49;72.54;99406.22;4949077;28;20231;-78
2023/07/04 03:47:36;;;;;;;5.37;2.37;;;;;;;19.46;72.64;99411.84;4944566;28;20236;-78
2023/07/04 03:50:03;;;;;;;3.53;2.20;;;;;;;19.46;72.57;99412.69;4949367;28;20477;-78
2023/07/04 03:52:28;;;;;;;2.63;2.33;;;;;;;19.47;72.83;99410.88;4947511;28;21131;-78
2023/07/04 03:54:54;;;;;;;3.43;1.90;;;;;;;19.48;72.79;99407.22;4948733;28;20661;-78
2023/07/04 03:57:20;;;;;;;3.13;2.43;;;;;;;19.49;72.64;99406.22;4946145;28;20261;-78
2023/07/04 03:59:45;;;;;;;2.60;2.07;;;;;;;19.50;72.90;99407.06;4956033;28;20216;-78
2023/07/04 04:02:11;;;;;;;2.23;1.97;;;;;;;19.53;72.96;99412.06;4955914;28;20778;-77
2023/07/04 04:04:39;;;;;;;2.60;2.13;;;;;;;19.57;72.91;99413.41;4952555;28;20616;-77
2023/07/04 04:07:09;;;;;;;3.23;2.57;;;;;;;19.60;72.66;99413.09;4954868;28;20488;-78
2023/07/04 04:09:36;;;;;;;3.00;2.30;;;;;;;19.61;72.78;99410.28;4956235;28;20477;-78
2023/07/04 04:12:04;;;;;;;2.93;2.50;;;;;;;19.65;72.36;99408.09;4956494;28;21068;-77
2023/07/04 04:14:29;;;;;;;2.80;2.00;;;;;;;19.68;72.33;99410.47;4956337;28;21139;-77
2023/07/04 04:16:56;;;;;;;2.60;2.07;;;;;;;19.68;72.42;99407.81;4953227;28;20551;-78
2023/07/04 04:19:22;;;;;;;5.63;2.30;;;;;;;19.66;72.54;99407.16;4952903;28;20621;-77
2023/07/04 04:21:47;;;;;;;2.83;2.00;;;;;;;19.65;72.75;99406.28;4924932;28;20543;-77
2023/07/04 04:24:12;;;;;;;4.37;2.50;;;;;;;19.65;72.80;99408.94;4953090;28;20244;-77
2023/07/04 04:26:39;;;;;;;4.33;2.63;;;;;;;19.67;72.85;99406.97;4952027;28;20208;-77
2023/07/04 04:29:05;;;;;;;3.40;2.20;;;;;;;19.72;72.59;99409.19;4954855;28;20707;-77
2023/07/04 04:31:37;;;;;;;2.40;2.17;;;;;;;19.73;72.82;99410.00;4951507;28;20852;-77
2023/07/04 04:34:02;;;;;;;2.97;2.10;;;;;;;19.68;73.00;99418.47;4955797;28;20603;-78
2023/07/04 04:36:28;;;;;;;3.13;2.58;;;;;;;19.65;73.34;99414.25;4950225;28;20489;-77
2023/07/04 04:38:53;;;;;;;3.80;3.23;;;;;;;19.62;73.65;99419.91;4954894;28;20334;-77
2023/07/04 04:41:19;;;;;;;7.67;2.20;;;;;;;19.60;73.65;99411.25;4956060;28;20710;-77
2023/07/04 04:43:45;;;;;;;4.07;2.43;;;;;;;19.63;73.49;99412.75;4951769;28;20227;-77
2023/07/04 04:46:10;;;;;;;3.10;2.30;;;;;;;19.70;73.25;99408.50;4951537;28;20495;-77
2023/07/04 04:48:36;;;;;;;2.40;2.20;;;;;;;19.77;73.08;99408.69;4956904;28;20558;-77
2023/07/04 04:51:07;;;;;;;3.83;2.70;;;;;;;19.79;72.66;99412.00;4953526;28;20313;-77
2023/07/04 04:53:48;;;;;;;3.27;2.53;;;;;;;19.82;72.43;99406.34;4954718;28;20553;-77
2023/07/04 04:56:14;;;;;;;5.57;3.27;;;;;;;19.85;72.14;99408.72;4950011;28;21114;-77
2023/07/04 04:58:43;;;;;;;5.13;2.57;;;;;;;19.88;72.09;99419.06;4956077;28;20492;-77
2023/07/04 05:01:14;;;;;;;5.50;3.23;;;;;;;19.92;71.88;99417.72;4952739;28;20488;-77
2023/07/04 05:03:42;;;;;;;4.73;2.47;;;;;;;19.96;71.59;99413.75;4950895;28;21084;-77
2023/07/04 05:06:07;;;;;;;5.50;2.50;;;;;;;20.00;71.54;99414.25;4952350;28;20486;-77
2023/07/04 05:08:33;;;;;;;3.07;2.57;;;;;;;20.05;71.27;99411.94;4953972;28;20496;-77
2023/07/04 05:11:06;;;;;;;6.00;3.00;;;;;;;20.09;70.93;99415.91;4953117;28;20238;-77
2023/07/04 05:13:38;;;;;;;2.93;2.07;;;;;;;20.11;70.81;99409.44;4954646;28;20501;-77
2023/07/04 05:16:09;;;;;;;5.37;2.53;;;;;;;20.15;70.70;99417.97;4954839;28;20610;-77
2023/07/04 05:18:36;;;;;;;3.10;2.27;;;;;;;20.15;70.71;99414.47;4952149;28;20922;-78
2023/07/04 05:21:07;;;;;;;3.30;2.70;;;;;;;20.14;70.88;99420.78;4955598;28;20524;-77
2023/07/04 05:23:35;;;;;;;4.20;3.23;;;;;;;20.15;70.88;99419.78;4957854;28;20482;-77
2023/07/04 05:26:12;;;;;;;7.27;2.63;;;;;;;20.17;71.00;99434.63;4958439;28;20487;-78
2023/07/04 05:28:39;;;;;;;3.37;2.87;;;;;;;20.19;71.14;99423.78;4958068;28;20879;-77
2023/07/04 05:31:11;;;;;;;6.73;3.00;;;;;;;20.20;71.06;99426.31;4945150;28;21041;-78
2023/07/04 05:36:26;;;;;;;6.60;2.60;;;;;;;20.25;70.90;99423.13;4944254;28;20562;-76
2023/07/04 05:38:54;;;;;;;5.40;2.57;;;;;;;20.22;71.06;99429.63;4948661;28;20215;-77
2023/07/04 05:41:22;;;;;;;4.30;2.57;;;;;;;20.24;71.01;99424.13;4944770;28;21031;-77
2023/07/04 05:43:48;;;;;;;4.20;2.80;;;;;;;20.24;71.09;99422.28;4949042;28;20578;-77
2023/07/04 05:46:15;;;;;;;4.97;2.50;;;;;;;20.27;71.14;99415.81;4945096;28;20488;-76
2023/07/04 05:48:42;;;;;;;3.60;2.83;;;;;;;20.30;71.11;99420.81;4947329;28;20228;-77
2023/07/04 05:51:10;;;;;;;3.70;2.47;;;;;;;20.36;71.02;99411.31;4946918;28;20665;-77
2023/07/04 05:53:37;;;;;;;2.73;2.53;;;;;;;20.40;70.82;99418.81;4948097;28;20861;-78
2023/07/04 05:56:18;;;;;;;4.40;2.80;;;;;;;20.46;70.67;99418.16;4948122;28;20495;-77
2023/07/04 05:58:45;;;;;;;3.10;1.90;;;;;;;20.53;70.72;99419.19;4954115;28;20714;-77
2023/07/04 06:01:19;;;;;;;3.37;2.40;;;;;;;20.62;70.22;99424.53;4950051;28;20613;-78
2023/07/04 06:03:44;;;;;;;2.80;2.60;;;;;;;20.66;70.32;99426.72;4954490;28;20889;-77
2023/07/04 06:06:21;;;;;;;4.10;2.20;;;;;;;20.70;70.22;99432.53;4952126;28;20474;-77
2023/07/04 06:08:48;;;;;;;2.60;2.23;;;;;;;20.73;70.25;99426.84;4956683;28;20227;-77
2023/07/04 06:11:14;;;;;;;3.63;3.17;;;;;;;20.78;70.08;99424.53;4955626;28;20980;-76
2023/07/04 06:13:41;;;;;;;3.67;2.83;;;;;;;20.83;69.97;99427.53;4953089;28;20485;-78
2023/07/04 06:16:07;;;;;;;2.70;2.37;;;;;;;20.89;69.69;99431.34;4955092;28;20607;-76
2023/07/04 06:18:33;;;;;;;2.00;1.80;;;;;;;20.92;69.41;99441.69;4952635;28;20490;-77
2023/07/04 06:21:19;;;;;;;3.50;2.23;;;;;;;20.92;69.23;99436.34;4951814;28;20930;-78
2023/07/04 06:23:44;;;;;;;3.83;2.60;;;;;;;20.91;69.36;99443.53;4954589;28;20512;-77
2023/07/04 06:26:11;;;;;;;9.23;2.53;;;;;;;20.96;69.06;99440.38;4952302;28;20538;-77
2023/07/04 06:28:38;;;;;;;2.47;2.27;;;;;;;21.05;68.86;99446.53;4954937;28;20226;-77
2023/07/04 06:31:05;;;;;;;5.20;2.40;;;;;;;21.14;68.77;99445.50;4952028;28;20502;-77
2023/07/04 06:33:31;;;;;;;3.93;2.37;;;;;;;21.20;68.43;99442.19;4951807;28;20603;-77
2023/07/04 06:35:57;;;;;;;2.90;2.40;;;;;;;21.29;68.57;99438.47;4953090;28;20481;-77
2023/07/04 06:38:22;;;;;;;5.43;2.83;;;;;;;21.38;68.63;99436.63;4950974;28;20681;-77
2023/07/04 06:40:59;;;;;;;3.20;2.60;;;;;;;21.49;68.20;99443.44;4949842;28;20554;-76
2023/07/04 06:43:26;;;;;;;2.37;1.80;;;;;;;21.59;67.87;99436.06;4952207;28;20214;-78
2023/07/04 06:45:52;;;;;;;2.50;1.50;;;;;;;21.70;67.77;99443.72;4942210;28;20477;-77
2023/07/04 06:48:17;;;;;;;2.10;1.53;;;;;;;21.82;67.41;99434.31;4922665;28;20603;-78
2023/07/04 06:50:45;;;;;;;3.07;1.90;;;;;;;21.96;67.03;99434.59;4945716;28;20222;-77
2023/07/04 06:53:11;;;;;;;2.77;2.20;;;;;;;22.09;66.80;99440.19;4951915;28;20708;-77
2023/07/04 06:55:36;;;;;;;3.47;2.57;;;;;;;22.20;66.51;99437.16;4955441;28;20529;-78
2023/07/04 06:58:04;;;;;;;3.10;2.30;;;;;;;22.30;66.15;99442.25;4949735;28;20502;-78
2023/07/04 07:00:30;;;;;;;3.80;2.20;;;;;;;22.39;65.57;99445.72;4950797;28;20215;-78
2023/07/04 07:05:42;;;;;;;3.70;2.73;;;;;;;22.56;65.00;99447.25;4916598;28;20486;-90
2023/07/04 07:08:33;;;;;;;2.80;2.07;;;;;;;22.60;64.71;99442.38;4924753;28;20558;-90
2023/07/04 07:11:15;;;;;;;2.60;2.07;;;;;;;22.65;64.20;99430.13;4920690;28;21706;-90
2023/07/04 07:14:05;;;;;;;2.50;2.30;;;;;;;22.79;63.97;99433.00;4920765;28;20507;-91
2023/07/04 07:16:45;;;;;;;2.77;1.90;;;;;;;22.93;63.43;99438.41;4915857;28;20468;-91
2023/07/04 07:19:23;;;;;;;2.30;1.60;;;;;;;23.08;62.60;99430.44;4917110;28;20481;-89
2023/07/04 07:22:21;;;;;;;;;;;;;;;;;;;;;
2023/07/04 07:25:06;;;;;;;3.07;2.20;;;;;;;23.36;61.56;99432.50;4912830;28;21276;-90
2023/07/04 07:27:36;;;;;;;5.23;4.00;;;;;;;23.43;61.35;99436.09;4895765;28;20871;-91
2023/07/04 07:30:10;;;;;;;4.10;2.43;;;;;;;23.47;60.90;99428.53;4914040;28;20573;-91
2023/07/04 07:33:01;;;;;;;;;;;;;;;;;;;;;
2023/07/04 07:36:07;;;;;;;;;;;;;;;;;;;;;
2023/07/04 07:39:13;;;;;;;;;;;;;;;;;;;;;
2023/07/04 07:41:57;;;;;;;;;;;;;;;;;;;;;
2023/07/04 07:44:49;;;;;;;3.43;2.73;;;;;;;23.85;59.20;99431.94;4914624;28;20446;-89
2023/07/04 07:47:36;;;;;;;;;;;;;;;;;;;;;
2023/07/04 07:51:14;;;;;;;;;;;;;;;;;;;;;
2023/07/04 07:53:56;;;;;;;2.40;2.20;;;;;;;23.99;58.28;99431.06;4912429;28;20492;-90
2023/07/04 07:56:51;;;;;;;3.47;1.70;;;;;;;23.96;57.96;99433.31;4913139;28;20459;-90
2023/07/04 07:59:48;;;;;;;;;;;;;;;;;;;;;
2023/07/04 08:02:17;;;;;;;2.30;1.40;;;;;;;24.10;57.40;99428.94;4916956;28;20475;-91
2023/07/04 08:04:53;;;;;;;2.20;1.70;;;;;;;24.15;57.07;99430.00;4914635;28;21352;-90
2023/07/04 08:07:30;;;;;;;4.50;2.93;;;;;;;24.28;56.58;99432.84;4916795;28;20918;-92
2023/07/04 08:10:09;;;;;;;2.40;1.93;;;;;;;24.46;56.17;99428.91;4917650;28;20227;-90
2023/07/04 08:13:08;;;;;;;;;;;;;;;;;;;;;
2023/07/04 08:15:42;;;;;;;2.00;1.60;;;;;;;25.02;54.41;99420.09;4910637;28;20479;-89
2023/07/04 08:18:15;;;;;;;2.90;1.57;;;;;;;25.22;53.81;99425.63;4922552;28;20498;-90
2023/07/04 08:20:48;;;;;;;3.83;2.80;;;;;;;25.33;53.82;99425.06;4897971;28;20480;-89
2023/07/04 08:23:27;;;;;;;2.07;1.70;;;;;;;25.44;53.42;99421.84;4920702;28;20662;-89
2023/07/04 08:26:06;;;;;;;;;;;;;;;;;;;;;
2023/07/04 08:28:44;;;;;;;3.73;2.43;;;;;;;25.92;51.84;99421.03;4919317;28;20491;-90
2023/07/04 08:31:23;;;;;;;;;;;;;;;;;;;;;
2023/07/04 08:34:20;;;;;;;47.60;32.47;;;;;;;26.23;51.05;99410.56;4919146;28;20514;-92
2023/07/04 08:37:19;;;;;;;;;;;;;;;;;;;;;
2023/07/04 08:44:17;;;;;;;;;;;;;;;;;;;;;
2023/07/04 08:47:19;;;;;;;;;;;;;;;;;;;;;
2023/07/04 08:55:11;;;;;;;;;;;;;;;;;;;;;
2023/07/04 08:58:10;;;;;;;;;;;;;;;;;;;;;
2023/07/04 09:05:32;;;;;;;;;;;;;;;;;;;;;
2023/07/04 09:09:13;;;;;;;;;;;;;;;;;;;;;
2023/07/04 09:12:44;;;;;;;;;;;;;;;;;;;;;
2023/07/04 09:17:06;;;;;;;;;;;;;;;;;;;;;
2023/07/04 09:19:55;;;;;;;4.80;2.57;;;;;;;26.46;46.14;99409.34;4819101;29;20481;-92
2023/07/04 09:29:59;;;;;;;;;;;;;;;;;;;;;
2023/07/04 09:33:16;;;;;;;;;;;;;;;;;;;;;
2023/07/04 09:40:00;;;;;;;2.47;1.80;;;;;;;26.90;43.68;99403.41;4820197;23;20230;-83
2023/07/04 09:42:32;;;;;;;3.30;1.90;;;;;;;26.91;43.45;99410.44;4928206;29;20510;-82
2023/07/04 09:45:05;;;;;;;4.37;1.70;;;;;;;26.94;43.24;99409.19;4909642;29;20474;-83
2023/07/04 09:47:32;;;;;;;2.03;1.67;;;;;;;26.88;43.34;99399.25;4921621;29;20821;-83
2023/07/04 09:50:16;;;;;;;3.17;2.60;;;;;;;26.73;43.53;99402.16;4912177;29;20469;-82
2023/07/04 09:52:42;;;;;;;2.40;1.83;;;;;;;26.72;43.60;99403.19;4915494;29;20449;-82
2023/07/04 09:55:26;;;;;;;3.93;2.50;;;;;;;26.80;43.06;99397.59;4918581;29;20471;-82
2023/07/04 09:57:51;;;;;;;3.23;2.43;;;;;;;27.03;43.06;99401.69;4915551;29;20551;-83
2023/07/04 10:00:17;;;;;;;4.33;2.50;;;;;;;27.30;42.85;99399.81;4921209;29;20525;-82
2023/07/04 10:02:46;;;;;;;2.40;1.77;;;;;;;27.49;41.93;99388.16;4923384;29;20581;-82
2023/07/04 10:05:23;;;;;;;3.10;2.30;;;;;;;27.55;41.90;99399.97;4915758;29;21042;-82
2023/07/04 10:08:06;;;;;;;4.33;2.23;;;;;;;27.64;41.57;99393.28;4921602;29;20531;-83
2023/07/04 10:10:36;;;;;;;3.67;2.17;;;;;;;27.63;41.25;99390.81;4925862;29;20474;-82
2023/07/04 10:13:02;;;;;;;3.70;2.00;;;;;;;27.62;41.30;99387.25;4923307;29;20523;-82
2023/07/04 10:15:37;;;;;;;1.90;1.50;;;;;;;27.84;40.82;99384.28;4918363;29;20468;-82
2023/07/04 10:18:05;;;;;;;1.87;1.53;;;;;;;27.87;40.53;99383.84;4913280;29;20330;-82
2023/07/04 10:20:40;;;;;;;3.73;1.30;;;;;;;27.81;40.07;99382.84;4920942;29;20891;-82
2023/07/04 10:23:06;;;;;;;2.83;2.03;;;;;;;27.64;40.62;99374.38;4919354;29;20472;-82
2023/07/04 10:25:33;;;;;;;2.23;1.50;;;;;;;27.75;40.87;99375.59;4918348;29;20471;-82
2023/07/04 10:28:11;;;;;;;1.90;1.57;;;;;;;27.96;40.13;99372.59;4916931;29;20210;-83
2023/07/04 10:30:37;;;;;;;4.80;2.13;;;;;;;27.94;40.31;99371.16;4916960;29;20474;-82
2023/07/04 10:33:19;;;;;;;3.60;1.70;;;;;;;27.75;40.50;99375.59;4920918;29;20476;-82
2023/07/04 10:35:47;;;;;;;2.10;1.57;;;;;;;27.80;40.17;99368.53;4918677;29;20492;-82
2023/07/04 10:38:31;;;;;;;2.13;1.53;;;;;;;27.96;39.69;99361.81;4915545;29;20499;-83
2023/07/04 10:40:58;;;;;;;3.00;1.93;;;;;;;28.11;39.70;99363.38;4929278;28;20476;-83
2023/07/04 10:43:34;;;;;;;2.07;1.73;;;;;;;28.09;39.17;99360.09;4938847;28;20471;-82
2023/07/04 10:46:11;;;;;;;2.40;2.20;;;;;;;28.00;39.20;99359.50;4909961;29;20477;-82
2023/07/04 10:48:38;;;;;;;2.07;1.50;;;;;;;27.93;39.18;99356.84;4928635;29;20546;-83
2023/07/04 10:51:17;;;;;;;2.70;1.57;;;;;;;27.88;39.12;99353.97;4919162;29;20470;-82
2023/07/04 10:53:43;;;;;;;1.50;1.40;;;;;;;27.82;39.24;99354.84;4937403;29;20478;-82
2023/07/04 10:56:27;;;;;;;1.90;1.40;;;;;;;27.75;39.18;99354.00;4950937;28;20557;-82
2023/07/04 10:59:05;;;;;;;3.27;1.50;;;;;;;27.66;39.23;99349.91;4942708;28;20226;-83
2023/07/04 11:01:41;;;;;;;1.83;1.73;;;;;;;27.58;39.56;99348.28;4942998;28;20928;-82
2023/07/04 11:04:19;;;;;;;3.93;1.50;;;;;;;27.61;40.06;99352.41;4939911;29;20590;-83
2023/07/04 11:07:11;;;;;;;1.60;1.40;;;;;;;27.66;39.90;99350.72;4936817;28;20485;-82
2023/07/04 11:09:41;;;;;;;4.90;1.53;;;;;;;27.70;39.63;99341.13;4936649;29;20465;-82
2023/07/04 11:12:12;;;;;;;2.87;1.30;;;;;;;27.74;39.42;99341.56;4935060;29;20460;-83
2023/07/04 11:14:40;;;;;;;1.80;1.30;;;;;;;27.77;39.37;99341.94;4940917;28;20483;-82
2023/07/04 11:17:10;;;;;;;1.90;1.70;;;;;;;27.83;39.22;99334.88;4941670;28;20491;-82
2023/07/04 11:19:53;;;;;;;1.93;1.73;;;;;;;27.92;38.20;99339.00;4927170;28;20479;-83
2023/07/04 11:22:18;;;;;;;2.73;1.40;;;;;;;27.98;38.60;99338.13;4941916;28;20475;-82
2023/07/04 11:24:54;;;;;;;1.77;1.40;;;;;;;28.09;38.14;99336.59;4942143;28;20546;-82
2023/07/04 11:27:29;;;;;;;2.00;1.30;;;;;;;28.19;38.30;99330.69;4933739;28;20623;-82
2023/07/04 11:30:02;;;;;;;1.57;1.40;;;;;;;28.27;38.19;99329.59;4911903;28;20486;-83
2023/07/04 11:32:37;;;;;;;2.17;1.40;;;;;;;28.32;38.44;99338.69;4939819;28;20545;-82
2023/07/04 11:35:13;;;;;;;3.07;1.30;;;;;;;28.32;38.60;99333.31;4935828;28;20455;-83
2023/07/04 11:37:51;;;;;;;1.77;1.20;;;;;;;28.34;38.51;99322.28;4945024;28;20502;-82
2023/07/04 11:40:30;;;;;;;2.43;1.60;;;;;;;28.38;38.53;99327.03;4944469;28;20856;-82
2023/07/04 11:43:28;;;;;;;1.50;1.40;;;;;;;28.37;38.41;99328.06;4943737;28;20463;-82
2023/07/04 11:45:55;;;;;;;1.93;1.30;;;;;;;28.43;38.84;99319.09;4942191;28;21102;-82
2023/07/04 11:48:22;;;;;;;1.17;1.07;;;;;;;28.54;38.50;99322.13;4946126;28;20970;-83
2023/07/04 11:50:58;;;;;;;1.30;1.10;;;;;;;28.69;38.16;99317.22;4943698;28;21272;-82
2023/07/04 11:54:00;;;;;;;2.13;1.40;;;;;;;28.80;37.81;99312.97;4942736;28;20473;-82
2023/07/04 11:56:28;;;;;;;2.13;1.20;;;;;;;28.71;38.09;99303.50;4940657;28;20548;-83
2023/07/04 11:59:12;;;;;;;2.53;1.80;;;;;;;28.71;38.20;99304.31;4939069;28;21035;-82
2023/07/04 12:01:56;;;;;;;3.63;1.77;;;;;;;28.82;38.21;99309.00;4940806;28;20475;-82
2023/07/04 12:04:34;;;;;;;2.50;1.10;;;;;;;28.95;38.00;99294.50;4941042;28;20447;-82
2023/07/04 12:07:31;;;;;;;2.53;1.80;;;;;;;28.95;37.79;99293.66;4939653;28;20474;-82
2023/07/04 12:10:14;;;;;;;4.10;1.70;;;;;;;28.92;37.92;99289.53;4939223;28;20905;-82
2023/07/04 12:12:41;;;;;;;3.40;1.60;;;;;;;28.94;37.50;99278.50;4939598;28;20474;-82
2023/07/04 12:15:18;;;;;;;3.00;1.70;;;;;;;29.01;37.07;99273.84;4940263;28;20526;-82
2023/07/04 12:17:45;;;;;;;3.70;1.63;;;;;;;29.11;36.67;99279.56;4936307;28;21084;-82
2023/07/04 12:20:19;;;;;;;2.30;1.40;;;;;;;29.20;36.90;99280.94;4937499;28;20517;-83
2023/07/04 12:22:51;;;;;;;2.97;1.47;;;;;;;29.32;36.41;99284.50;4938147;28;20986;-82
2023/07/04 12:25:22;;;;;;;2.13;1.53;;;;;;;29.33;36.67;99280.75;4936850;28;21029;-82
2023/07/04 12:27:47;;;;;;;1.87;1.47;;;;;;;29.41;36.82;99286.88;4939218;28;20468;-82
2023/07/04 12:30:14;;;;;;;2.00;1.30;;;;;;;29.39;36.28;99280.91;4940408;28;20485;-82
2023/07/04 12:32:40;;;;;;;2.03;1.30;;;;;;;29.33;35.96;99278.06;4943031;28;20270;-82
2023/07/04 12:35:18;;;;;;;2.50;2.30;;;;;;;29.27;36.00;99275.41;4940845;28;20495;-78
2023/07/04 12:37:47;;;;;;;1.20;1.10;;;;;;;29.37;36.15;99274.88;4942475;28;20533;-81
2023/07/04 12:40:16;;;;;;;1.13;1.03;;;;;;;29.47;35.88;99276.00;4941627;28;20462;-81
2023/07/04 12:42:44;;;;;;;2.13;1.80;;;;;;;29.51;35.95;99268.25;4941323;28;20461;-81
2023/07/04 12:45:22;;;;;;;1.60;1.30;;;;;;;29.52;35.51;99267.19;4945165;28;20454;-81
2023/07/04 12:47:49;;;;;;;1.10;1.00;;;;;;;29.54;35.50;99259.66;4928863;28;20500;-81
2023/07/04 12:50:16;;;;;;;1.47;1.30;;;;;;;29.46;35.72;99257.28;4946033;28;20867;-81
2023/07/04 12:52:44;;;;;;;1.27;1.10;;;;;;;29.38;35.93;99266.56;4945530;28;20455;-81
2023/07/04 12:55:32;;;;;;;5.90;2.30;;;;;;;29.28;35.87;99263.56;4944918;28;20463;-81
2023/07/04 12:57:59;;;;;;;1.50;1.40;;;;;;;29.29;35.77;99263.31;4946673;28;20499;-81
2023/07/04 13:00:30;;;;;;;1.60;1.20;;;;;;;29.38;35.89;99254.88;4945281;28;20461;-82